sensor_id;sensor_type;location;lat;lon;timestamp;pressure;altitude;pressure_sealevel;temperature;humidity
9525;BME280;15940;48.734;9.112;2022-10-17T00:01:45;97131.94;;;12.53;91.66
9525;BME280;15940;48.734;9.112;2022-10-17T00:04:12;97141.56;;;12.54;91.76
9525;BME280;15940;48.734;9.112;2022-10-17T00:06:39;97138.13;;;12.53;91.70
9525;BME280;15940;48.734;9.112;2022-10-17T00:09:06;97144.03;;;12.52;91.78
9525;BME280;15940;48.734;9.112;2022-10-17T00:11:35;97142.28;;;12.49;92.25
9525;BME280;15940;48.734;9.112;2022-10-17T00:14:02;97140.78;;;12.42;91.54
9525;BME280;15940;48.734;9.112;2022-10-17T00:16:34;97145.97;;;12.46;92.34
9525;BME280;15940;48.734;9.112;2022-10-17T00:19:02;97147.94;;;12.45;91.90
9525;BME280;15940;48.734;9.112;2022-10-17T00:21:29;97147.16;;;12.39;91.74
9525;BME280;15940;48.734;9.112;2022-10-17T00:23:56;97154.31;;;12.37;91.71
9525;BME280;15940;48.734;9.112;2022-10-17T00:26:24;97148.63;;;12.35;91.81
9525;BME280;15940;48.734;9.112;2022-10-17T00:28:52;97151.53;;;12.31;91.83
9525;BME280;15940;48.734;9.112;2022-10-17T00:31:21;97154.53;;;12.33;92.43
9525;BME280;15940;48.734;9.112;2022-10-17T00:33:51;97163.69;;;12.36;92.81
9525;BME280;15940;48.734;9.112;2022-10-17T00:36:20;97158.19;;;12.30;92.05
9525;BME280;15940;48.734;9.112;2022-10-17T00:38:51;97165.41;;;12.33;92.03
9525;BME280;15940;48.734;9.112;2022-10-17T00:41:21;97165.59;;;12.29;91.99
9525;BME280;15940;48.734;9.112;2022-10-17T00:43:55;97155.53;;;12.36;92.79
9525;BME280;15940;48.734;9.112;2022-10-17T00:46:25;97167.66;;;12.40;92.88
9525;BME280;15940;48.734;9.112;2022-10-17T00:48:55;97165.66;;;12.35;92.33
9525;BME280;15940;48.734;9.112;2022-10-17T00:51:28;97168.88;;;12.39;92.69
9525;BME280;15940;48.734;9.112;2022-10-17T00:53:58;97163.19;;;12.37;92.20
9525;BME280;15940;48.734;9.112;2022-10-17T00:56:25;97163.88;;;12.26;92.02
9525;BME280;15940;48.734;9.112;2022-10-17T00:58:53;97164.34;;;12.25;92.99
9525;BME280;15940;48.734;9.112;2022-10-17T01:01:20;97166.16;;;12.34;92.96
9525;BME280;15940;48.734;9.112;2022-10-17T01:03:47;97170.59;;;12.37;92.29
9525;BME280;15940;48.734;9.112;2022-10-17T01:06:16;97160.97;;;12.36;92.53
9525;BME280;15940;48.734;9.112;2022-10-17T01:08:43;97159.69;;;12.31;92.29
9525;BME280;15940;48.734;9.112;2022-10-17T01:11:21;97166.31;;;12.24;92.15
9525;BME280;15940;48.734;9.112;2022-10-17T01:13:58;97170.28;;;12.23;92.32
9525;BME280;15940;48.734;9.112;2022-10-17T01:16:40;97161.38;;;12.23;92.32
9525;BME280;15940;48.734;9.112;2022-10-17T01:19:42;97164.09;;;12.23;92.44
9525;BME280;15940;48.734;9.112;2022-10-17T01:22:20;97161.66;;;12.30;92.66
9525;BME280;15940;48.734;9.112;2022-10-17T01:25:10;97163.94;;;12.38;92.98
9525;BME280;15940;48.734;9.112;2022-10-17T01:28:04;97154.56;;;12.39;92.71
9525;BME280;15940;48.734;9.112;2022-10-17T01:31:02;97153.56;;;12.36;92.13
9525;BME280;15940;48.734;9.112;2022-10-17T01:33:47;97166.84;;;12.28;91.91
9525;BME280;15940;48.734;9.112;2022-10-17T01:36:27;97157.44;;;12.24;91.78
9525;BME280;15940;48.734;9.112;2022-10-17T01:39:04;97166.97;;;12.14;91.51
9525;BME280;15940;48.734;9.112;2022-10-17T01:41:40;97157.78;;;12.06;91.47
9525;BME280;15940;48.734;9.112;2022-10-17T01:44:12;97154.53;;;12.01;91.36
9525;BME280;15940;48.734;9.112;2022-10-17T01:46:43;97164.44;;;12.05;92.79
9525;BME280;15940;48.734;9.112;2022-10-17T01:49:13;97167.63;;;12.03;92.24
9525;BME280;15940;48.734;9.112;2022-10-17T01:51:45;97158.22;;;11.98;92.38
9525;BME280;15940;48.734;9.112;2022-10-17T01:54:18;97158.94;;;11.99;92.56
9525;BME280;15940;48.734;9.112;2022-10-17T01:56:50;97159.22;;;12.01;92.75
9525;BME280;15940;48.734;9.112;2022-10-17T01:59:23;97156.94;;;11.94;92.20
9525;BME280;15940;48.734;9.112;2022-10-17T02:01:54;97159.75;;;12.05;92.51
9525;BME280;15940;48.734;9.112;2022-10-17T02:04:23;97154.56;;;12.07;92.70
9525;BME280;15940;48.734;9.112;2022-10-17T02:06:50;97153.25;;;11.97;91.75
9525;BME280;15940;48.734;9.112;2022-10-17T02:09:20;97153.19;;;11.91;92.09
9525;BME280;15940;48.734;9.112;2022-10-17T02:12:33;97148.81;;;11.94;92.93
9525;BME280;15940;48.734;9.112;2022-10-17T02:15:36;97150.06;;;11.98;92.66
9525;BME280;15940;48.734;9.112;2022-10-17T02:18:22;97147.59;;;12.00;92.93
9525;BME280;15940;48.734;9.112;2022-10-17T02:20:58;97149.56;;;12.00;92.75
9525;BME280;15940;48.734;9.112;2022-10-17T02:23:34;97151.88;;;12.07;93.00
9525;BME280;15940;48.734;9.112;2022-10-17T02:26:09;97156.06;;;12.08;92.97
9525;BME280;15940;48.734;9.112;2022-10-17T02:28:43;97157.31;;;12.13;92.98
9525;BME280;15940;48.734;9.112;2022-10-17T02:31:15;97158.72;;;12.02;92.26
9525;BME280;15940;48.734;9.112;2022-10-17T02:33:48;97155.50;;;11.98;91.79
9525;BME280;15940;48.734;9.112;2022-10-17T02:36:21;97166.44;;;11.84;91.69
9525;BME280;15940;48.734;9.112;2022-10-17T02:38:50;97167.75;;;11.88;92.44
9525;BME280;15940;48.734;9.112;2022-10-17T02:41:19;97172.00;;;11.95;92.63
9525;BME280;15940;48.734;9.112;2022-10-17T02:43:49;97173.91;;;11.89;91.66
9525;BME280;15940;48.734;9.112;2022-10-17T02:46:20;97164.91;;;11.77;91.76
9525;BME280;15940;48.734;9.112;2022-10-17T02:48:52;97174.91;;;11.91;92.88
9525;BME280;15940;48.734;9.112;2022-10-17T02:51:28;97174.44;;;11.93;92.49
9525;BME280;15940;48.734;9.112;2022-10-17T02:54:04;97175.19;;;11.93;92.43
9525;BME280;15940;48.734;9.112;2022-10-17T02:56:40;97165.66;;;11.78;91.69
9525;BME280;15940;48.734;9.112;2022-10-17T02:59:12;97159.72;;;11.79;92.28
9525;BME280;15940;48.734;9.112;2022-10-17T03:01:40;97167.47;;;11.86;92.68
9525;BME280;15940;48.734;9.112;2022-10-17T03:04:12;97166.94;;;11.82;92.26
9525;BME280;15940;48.734;9.112;2022-10-17T03:06:40;97166.94;;;11.82;92.41
9525;BME280;15940;48.734;9.112;2022-10-17T03:09:08;97171.72;;;11.93;92.73
9525;BME280;15940;48.734;9.112;2022-10-17T03:11:35;97175.25;;;11.99;93.17
9525;BME280;15940;48.734;9.112;2022-10-17T03:14:02;97175.25;;;11.99;92.66
9525;BME280;15940;48.734;9.112;2022-10-17T03:16:29;97170.06;;;12.01;92.85
9525;BME280;15940;48.734;9.112;2022-10-17T03:18:56;97174.31;;;12.08;92.67
9525;BME280;15940;48.734;9.112;2022-10-17T03:21:24;97175.59;;;12.12;92.41
9525;BME280;15940;48.734;9.112;2022-10-17T03:23:51;97165.00;;;12.14;92.23
9525;BME280;15940;48.734;9.112;2022-10-17T03:26:18;97166.50;;;12.15;91.97
9525;BME280;15940;48.734;9.112;2022-10-17T03:28:45;97180.56;;;12.14;92.02
9525;BME280;15940;48.734;9.112;2022-10-17T03:31:15;97178.03;;;12.10;91.44
9525;BME280;15940;48.734;9.112;2022-10-17T03:33:42;97178.53;;;12.09;92.05
9525;BME280;15940;48.734;9.112;2022-10-17T03:36:12;97179.53;;;12.11;91.63
9525;BME280;15940;48.734;9.112;2022-10-17T03:38:42;97180.00;;;12.10;91.37
9525;BME280;15940;48.734;9.112;2022-10-17T03:41:10;97181.72;;;12.07;91.88
9525;BME280;15940;48.734;9.112;2022-10-17T03:43:37;97184.22;;;12.11;91.48
9525;BME280;15940;48.734;9.112;2022-10-17T03:46:05;97184.94;;;12.06;91.00
9525;BME280;15940;48.734;9.112;2022-10-17T03:48:32;97184.38;;;12.01;91.55
9525;BME280;15940;48.734;9.112;2022-10-17T03:53:23;97185.28;;;11.93;90.93
9525;BME280;15940;48.734;9.112;2022-10-17T03:55:50;97188.00;;;11.93;91.55
9525;BME280;15940;48.734;9.112;2022-10-17T03:58:17;97184.63;;;11.98;91.56
9525;BME280;15940;48.734;9.112;2022-10-17T04:00:44;97186.53;;;11.92;91.12
9525;BME280;15940;48.734;9.112;2022-10-17T04:03:11;97196.38;;;11.89;91.12
9525;BME280;15940;48.734;9.112;2022-10-17T04:05:38;97190.94;;;11.89;91.10
9525;BME280;15940;48.734;9.112;2022-10-17T04:08:05;97198.03;;;11.81;91.34
9525;BME280;15940;48.734;9.112;2022-10-17T04:10:33;97203.53;;;11.66;90.34
9525;BME280;15940;48.734;9.112;2022-10-17T04:13:00;97211.75;;;11.52;90.16
9525;BME280;15940;48.734;9.112;2022-10-17T04:15:27;97207.75;;;11.47;90.75
9525;BME280;15940;48.734;9.112;2022-10-17T04:17:54;97209.78;;;11.52;91.24
9525;BME280;15940;48.734;9.112;2022-10-17T04:20:21;97210.59;;;11.58;91.63
9525;BME280;15940;48.734;9.112;2022-10-17T04:22:48;97217.84;;;11.67;92.04
9525;BME280;15940;48.734;9.112;2022-10-17T04:25:15;97207.84;;;11.79;92.36
9525;BME280;15940;48.734;9.112;2022-10-17T04:27:44;97209.19;;;11.89;92.26
9525;BME280;15940;48.734;9.112;2022-10-17T04:30:11;97218.84;;;11.90;91.79
9525;BME280;15940;48.734;9.112;2022-10-17T04:32:38;97209.19;;;11.89;91.22
9525;BME280;15940;48.734;9.112;2022-10-17T04:35:06;97210.63;;;11.84;91.36
9525;BME280;15940;48.734;9.112;2022-10-17T04:37:33;97215.59;;;11.86;91.22
9525;BME280;15940;48.734;9.112;2022-10-17T04:40:00;97217.19;;;11.98;91.01
9525;BME280;15940;48.734;9.112;2022-10-17T04:42:28;97223.47;;;12.10;90.96
9525;BME280;15940;48.734;9.112;2022-10-17T04:44:56;97227.25;;;12.18;90.63
9525;BME280;15940;48.734;9.112;2022-10-17T04:47:23;97220.38;;;12.22;90.02
9525;BME280;15940;48.734;9.112;2022-10-17T04:49:50;97220.16;;;12.26;89.87
9525;BME280;15940;48.734;9.112;2022-10-17T04:52:17;97221.66;;;12.27;89.79
9525;BME280;15940;48.734;9.112;2022-10-17T04:54:44;97225.34;;;12.24;89.70
9525;BME280;15940;48.734;9.112;2022-10-17T04:57:11;97219.69;;;12.27;90.35
9525;BME280;15940;48.734;9.112;2022-10-17T04:59:38;97226.75;;;12.19;89.58
9525;BME280;15940;48.734;9.112;2022-10-17T05:02:06;97221.81;;;12.18;90.32
9525;BME280;15940;48.734;9.112;2022-10-17T05:04:33;97215.56;;;12.12;89.92
9525;BME280;15940;48.734;9.112;2022-10-17T05:07:00;97221.22;;;12.08;89.53
9525;BME280;15940;48.734;9.112;2022-10-17T05:09:28;97225.13;;;12.01;89.51
9525;BME280;15940;48.734;9.112;2022-10-17T05:11:55;97227.78;;;11.96;89.52
9525;BME280;15940;48.734;9.112;2022-10-17T05:14:22;97209.19;;;11.89;89.13
9525;BME280;15940;48.734;9.112;2022-10-17T05:16:49;97221.47;;;11.84;89.07
9525;BME280;15940;48.734;9.112;2022-10-17T05:19:17;97222.72;;;11.83;89.88
9525;BME280;15940;48.734;9.112;2022-10-17T05:21:44;97214.56;;;11.83;90.50
9525;BME280;15940;48.734;9.112;2022-10-17T05:24:13;97209.63;;;11.82;90.80
9525;BME280;15940;48.734;9.112;2022-10-17T05:26:40;97217.22;;;11.78;90.20
9525;BME280;15940;48.734;9.112;2022-10-17T05:29:07;97213.75;;;11.77;90.30
9525;BME280;15940;48.734;9.112;2022-10-17T05:31:34;97214.31;;;11.81;91.33
9525;BME280;15940;48.734;9.112;2022-10-17T05:34:02;97217.03;;;11.81;90.96
9525;BME280;15940;48.734;9.112;2022-10-17T05:36:31;97217.50;;;11.80;90.85
9525;BME280;15940;48.734;9.112;2022-10-17T05:38:57;97224.88;;;11.79;90.60
9525;BME280;15940;48.734;9.112;2022-10-17T05:41:24;97226.84;;;11.79;90.46
9525;BME280;15940;48.734;9.112;2022-10-17T05:43:51;97231.53;;;11.78;90.71
9525;BME280;15940;48.734;9.112;2022-10-17T05:46:18;97226.03;;;11.72;91.08
9525;BME280;15940;48.734;9.112;2022-10-17T05:48:45;97224.81;;;11.73;90.86
9525;BME280;15940;48.734;9.112;2022-10-17T05:51:12;97232.50;;;11.75;90.83
9525;BME280;15940;48.734;9.112;2022-10-17T05:53:41;97232.63;;;11.66;90.51
9525;BME280;15940;48.734;9.112;2022-10-17T05:56:11;97235.28;;;11.60;90.66
9525;BME280;15940;48.734;9.112;2022-10-17T05:58:40;97234.56;;;11.65;91.26
9525;BME280;15940;48.734;9.112;2022-10-17T06:01:09;97231.47;;;11.72;91.29
9525;BME280;15940;48.734;9.112;2022-10-17T06:03:38;97244.50;;;11.68;91.46
9525;BME280;15940;48.734;9.112;2022-10-17T06:06:07;97244.75;;;11.70;91.21
9525;BME280;15940;48.734;9.112;2022-10-17T06:08:34;97246.13;;;11.81;91.46
9525;BME280;15940;48.734;9.112;2022-10-17T06:11:03;97251.56;;;11.81;91.37
9525;BME280;15940;48.734;9.112;2022-10-17T06:13:30;97246.88;;;11.81;91.25
9525;BME280;15940;48.734;9.112;2022-10-17T06:15:57;97241.63;;;11.78;91.07
9525;BME280;15940;48.734;9.112;2022-10-17T06:18:24;97233.50;;;11.78;91.32
9525;BME280;15940;48.734;9.112;2022-10-17T06:20:52;97246.47;;;11.88;91.63
9525;BME280;15940;48.734;9.112;2022-10-17T06:23:19;97250.41;;;11.87;91.36
9525;BME280;15940;48.734;9.112;2022-10-17T06:25:46;97243.81;;;11.94;91.29
9525;BME280;15940;48.734;9.112;2022-10-17T06:28:14;97246.06;;;11.95;91.25
9525;BME280;15940;48.734;9.112;2022-10-17T06:30:41;97236.41;;;11.94;91.24
9525;BME280;15940;48.734;9.112;2022-10-17T06:33:08;97249.50;;;11.96;91.24
9525;BME280;15940;48.734;9.112;2022-10-17T06:35:35;97255.88;;;11.93;91.09
9525;BME280;15940;48.734;9.112;2022-10-17T06:38:03;97259.16;;;11.97;91.03
9525;BME280;15940;48.734;9.112;2022-10-17T06:40:30;97269.59;;;12.04;91.18
9525;BME280;15940;48.734;9.112;2022-10-17T06:42:57;97274.53;;;12.06;90.54
9525;BME280;15940;48.734;9.112;2022-10-17T06:45:25;97277.03;;;12.09;89.93
9525;BME280;15940;48.734;9.112;2022-10-17T06:47:52;97284.50;;;12.14;89.77
9525;BME280;15940;48.734;9.112;2022-10-17T06:50:19;97285.50;;;12.17;89.15
9525;BME280;15940;48.734;9.112;2022-10-17T06:52:50;97294.91;;;12.21;89.28
9525;BME280;15940;48.734;9.112;2022-10-17T06:55:17;97299.19;;;12.28;89.15
9525;BME280;15940;48.734;9.112;2022-10-17T06:57:44;97312.09;;;12.33;89.15
9525;BME280;15940;48.734;9.112;2022-10-17T07:00:12;97309.41;;;12.39;89.22
9525;BME280;15940;48.734;9.112;2022-10-17T07:02:41;97312.72;;;12.48;89.07
9525;BME280;15940;48.734;9.112;2022-10-17T07:05:09;97312.03;;;12.53;89.09
9525;BME280;15940;48.734;9.112;2022-10-17T07:07:36;97309.41;;;12.65;88.74
9525;BME280;15940;48.734;9.112;2022-10-17T07:10:04;97316.16;;;12.75;88.93
9525;BME280;15940;48.734;9.112;2022-10-17T07:12:33;97312.56;;;12.89;88.77
9525;BME280;15940;48.734;9.112;2022-10-17T07:15:00;97313.91;;;13.05;88.27
9525;BME280;15940;48.734;9.112;2022-10-17T07:17:28;97320.72;;;13.21;88.18
9525;BME280;15940;48.734;9.112;2022-10-17T07:19:57;97320.56;;;13.35;87.23
9525;BME280;15940;48.734;9.112;2022-10-17T07:22:24;97320.66;;;13.52;87.09
9525;BME280;15940;48.734;9.112;2022-10-17T07:24:51;97314.84;;;13.76;86.34
9525;BME280;15940;48.734;9.112;2022-10-17T07:27:18;97328.28;;;13.96;86.02
9525;BME280;15940;48.734;9.112;2022-10-17T07:29:45;97326.34;;;14.19;84.22
9525;BME280;15940;48.734;9.112;2022-10-17T07:32:12;97330.38;;;14.41;83.36
9525;BME280;15940;48.734;9.112;2022-10-17T07:34:39;97333.66;;;14.62;82.92
9525;BME280;15940;48.734;9.112;2022-10-17T07:37:07;97336.16;;;14.82;82.06
9525;BME280;15940;48.734;9.112;2022-10-17T07:39:35;97331.19;;;15.03;80.32
9525;BME280;15940;48.734;9.112;2022-10-17T07:42:04;97334.38;;;15.24;79.70
9525;BME280;15940;48.734;9.112;2022-10-17T07:44:32;97326.91;;;15.41;78.95
9525;BME280;15940;48.734;9.112;2022-10-17T07:47:00;97336.31;;;15.62;78.44
9525;BME280;15940;48.734;9.112;2022-10-17T07:49:27;97345.44;;;15.82;77.71
9525;BME280;15940;48.734;9.112;2022-10-17T07:51:54;97337.41;;;16.00;76.55
9525;BME280;15940;48.734;9.112;2022-10-17T07:54:22;97345.03;;;16.19;75.67
9525;BME280;15940;48.734;9.112;2022-10-17T07:56:49;97341.97;;;16.34;75.44
9525;BME280;15940;48.734;9.112;2022-10-17T07:59:17;97348.59;;;16.49;74.81
9525;BME280;15940;48.734;9.112;2022-10-17T08:01:44;97337.81;;;16.63;74.62
9525;BME280;15940;48.734;9.112;2022-10-17T08:04:11;97343.97;;;16.74;74.00
9525;BME280;15940;48.734;9.112;2022-10-17T08:06:38;97346.91;;;16.82;73.67
9525;BME280;15940;48.734;9.112;2022-10-17T08:09:05;97346.59;;;16.91;73.25
9525;BME280;15940;48.734;9.112;2022-10-17T08:11:33;97343.25;;;17.04;70.95
9525;BME280;15940;48.734;9.112;2022-10-17T08:14:02;97346.66;;;17.16;70.28
9525;BME280;15940;48.734;9.112;2022-10-17T08:16:29;97337.81;;;17.28;70.38
9525;BME280;15940;48.734;9.112;2022-10-17T08:18:56;97339.34;;;17.48;69.24
9525;BME280;15940;48.734;9.112;2022-10-17T08:21:23;97339.47;;;17.61;69.42
9525;BME280;15940;48.734;9.112;2022-10-17T08:23:50;97351.53;;;17.77;68.62
9525;BME280;15940;48.734;9.112;2022-10-17T08:26:17;97345.69;;;17.86;66.71
9525;BME280;15940;48.734;9.112;2022-10-17T08:28:46;97343.13;;;17.94;67.27
9525;BME280;15940;48.734;9.112;2022-10-17T08:31:15;97345.03;;;17.99;66.63
9525;BME280;15940;48.734;9.112;2022-10-17T08:33:45;97357.06;;;18.15;67.47
9525;BME280;15940;48.734;9.112;2022-10-17T08:36:14;97349.16;;;18.30;66.76
9525;BME280;15940;48.734;9.112;2022-10-17T08:38:42;97354.84;;;18.51;67.45
9525;BME280;15940;48.734;9.112;2022-10-17T08:41:18;97351.72;;;18.79;66.20
9525;BME280;15940;48.734;9.112;2022-10-17T08:44:04;97356.75;;;19.07;66.11
9525;BME280;15940;48.734;9.112;2022-10-17T08:46:37;97350.47;;;19.25;63.72
9525;BME280;15940;48.734;9.112;2022-10-17T08:49:10;97356.75;;;19.52;63.69
9525;BME280;15940;48.734;9.112;2022-10-17T08:51:46;97364.03;;;19.89;62.67
9525;BME280;15940;48.734;9.112;2022-10-17T08:54:18;97361.25;;;20.16;60.83
9525;BME280;15940;48.734;9.112;2022-10-17T08:56:49;97360.47;;;20.42;60.95
9525;BME280;15940;48.734;9.112;2022-10-17T08:59:23;97362.16;;;20.58;59.28
9525;BME280;15940;48.734;9.112;2022-10-17T09:01:57;97359.50;;;20.87;60.04
9525;BME280;15940;48.734;9.112;2022-10-17T09:04:50;97364.47;;;21.09;57.44
9525;BME280;15940;48.734;9.112;2022-10-17T09:07:29;97359.56;;;21.15;58.75
9525;BME280;15940;48.734;9.112;2022-10-17T09:10:08;97365.34;;;21.25;57.19
9525;BME280;15940;48.734;9.112;2022-10-17T09:12:43;97364.06;;;21.47;57.85
9525;BME280;15940;48.734;9.112;2022-10-17T09:15:35;97353.63;;;21.53;55.87
9525;BME280;15940;48.734;9.112;2022-10-17T09:18:11;97356.97;;;21.59;56.25
9525;BME280;15940;48.734;9.112;2022-10-17T09:20:43;97362.38;;;21.72;54.76
9525;BME280;15940;48.734;9.112;2022-10-17T09:23:16;97364.25;;;21.77;55.34
9525;BME280;15940;48.734;9.112;2022-10-17T09:25:47;97357.44;;;21.78;54.06
9525;BME280;15940;48.734;9.112;2022-10-17T09:28:20;97360.84;;;21.92;54.61
9525;BME280;15940;48.734;9.112;2022-10-17T09:30:55;97358.31;;;22.02;53.83
9525;BME280;15940;48.734;9.112;2022-10-17T09:33:26;97358.16;;;22.07;54.41
9525;BME280;15940;48.734;9.112;2022-10-17T09:35:56;97364.53;;;21.94;53.19
9525;BME280;15940;48.734;9.112;2022-10-17T09:38:42;97350.00;;;21.94;54.73
9525;BME280;15940;48.734;9.112;2022-10-17T09:41:18;97356.91;;;22.16;53.77
9525;BME280;15940;48.734;9.112;2022-10-17T09:43:45;97359.91;;;22.26;51.94
9525;BME280;15940;48.734;9.112;2022-10-17T09:46:21;97354.78;;;22.30;52.69
9525;BME280;15940;48.734;9.112;2022-10-17T09:48:53;97356.22;;;22.23;52.27
9525;BME280;15940;48.734;9.112;2022-10-17T09:51:21;97364.69;;;22.17;52.85
9525;BME280;15940;48.734;9.112;2022-10-17T09:53:52;97353.84;;;22.27;53.63
9525;BME280;15940;48.734;9.112;2022-10-17T09:56:21;97352.06;;;22.45;52.61
9525;BME280;15940;48.734;9.112;2022-10-17T09:58:51;97353.34;;;22.36;51.30
9525;BME280;15940;48.734;9.112;2022-10-17T10:01:23;97364.16;;;22.34;51.77
9525;BME280;15940;48.734;9.112;2022-10-17T10:04:08;97366.78;;;22.40;52.29
9525;BME280;15940;48.734;9.112;2022-10-17T10:06:36;97358.31;;;22.45;53.88
9525;BME280;15940;48.734;9.112;2022-10-17T10:09:04;97360.91;;;22.51;53.02
9525;BME280;15940;48.734;9.112;2022-10-17T10:11:48;97360.59;;;22.70;52.77
9525;BME280;15940;48.734;9.112;2022-10-17T10:14:22;97363.72;;;22.81;50.82
9525;BME280;15940;48.734;9.112;2022-10-17T10:16:51;97364.88;;;22.86;52.60
9525;BME280;15940;48.734;9.112;2022-10-17T10:19:27;97364.28;;;22.80;49.00
9525;BME280;15940;48.734;9.112;2022-10-17T10:21:56;97360.22;;;22.66;50.44
9525;BME280;15940;48.734;9.112;2022-10-17T10:24:24;97369.03;;;22.64;51.49
9525;BME280;15940;48.734;9.112;2022-10-17T10:26:54;97370.31;;;22.56;51.45
9525;BME280;15940;48.734;9.112;2022-10-17T10:29:27;97369.56;;;22.47;52.13
9525;BME280;15940;48.734;9.112;2022-10-17T10:32:06;97371.97;;;22.51;50.25
9525;BME280;15940;48.734;9.112;2022-10-17T10:34:34;97380.81;;;22.57;52.06
9525;BME280;15940;48.734;9.112;2022-10-17T10:37:13;97372.75;;;22.67;49.74
9525;BME280;15940;48.734;9.112;2022-10-17T10:39:46;97383.97;;;22.69;51.00
9525;BME280;15940;48.734;9.112;2022-10-17T10:42:24;97380.66;;;22.70;49.46
9525;BME280;15940;48.734;9.112;2022-10-17T10:44:55;97381.78;;;22.83;50.50
9525;BME280;15940;48.734;9.112;2022-10-17T10:47:26;97382.75;;;22.85;49.73
9525;BME280;15940;48.734;9.112;2022-10-17T10:50:21;97378.16;;;22.88;50.93
9525;BME280;15940;48.734;9.112;2022-10-17T10:53:04;97376.88;;;22.96;50.39
9525;BME280;15940;48.734;9.112;2022-10-17T10:55:39;97371.72;;;23.00;50.31
9525;BME280;15940;48.734;9.112;2022-10-17T10:58:24;97381.69;;;23.19;49.25
9525;BME280;15940;48.734;9.112;2022-10-17T11:00:53;97381.84;;;23.21;48.71
9525;BME280;15940;48.734;9.112;2022-10-17T11:03:31;97375.78;;;23.15;48.42
9525;BME280;15940;48.734;9.112;2022-10-17T11:06:04;97368.75;;;23.21;48.32
9525;BME280;15940;48.734;9.112;2022-10-17T11:08:37;97372.28;;;23.37;47.20
9525;BME280;15940;48.734;9.112;2022-10-17T11:11:13;97371.53;;;23.52;48.28
9525;BME280;15940;48.734;9.112;2022-10-17T11:13:47;97374.31;;;23.59;48.32
9525;BME280;15940;48.734;9.112;2022-10-17T11:16:29;97374.47;;;23.54;46.63
9525;BME280;15940;48.734;9.112;2022-10-17T11:19:17;97369.69;;;23.54;48.27
9525;BME280;15940;48.734;9.112;2022-10-17T11:22:01;97370.41;;;23.78;45.01
9525;BME280;15940;48.734;9.112;2022-10-17T11:24:36;97362.31;;;23.80;46.80
9525;BME280;15940;48.734;9.112;2022-10-17T11:27:05;97352.28;;;24.00;46.90
9525;BME280;15940;48.734;9.112;2022-10-17T11:29:35;97355.53;;;24.21;47.68
9525;BME280;15940;48.734;9.112;2022-10-17T11:32:07;97350.88;;;24.31;45.43
9525;BME280;15940;48.734;9.112;2022-10-17T11:34:41;97361.56;;;24.35;44.42
9525;BME280;15940;48.734;9.112;2022-10-17T11:37:15;97355.84;;;24.33;45.56
9525;BME280;15940;48.734;9.112;2022-10-17T11:39:47;97364.56;;;24.21;46.16
9525;BME280;15940;48.734;9.112;2022-10-17T11:42:19;97363.34;;;24.07;46.36
9525;BME280;15940;48.734;9.112;2022-10-17T11:44:49;97367.03;;;23.94;45.20
9525;BME280;15940;48.734;9.112;2022-10-17T11:47:28;97365.16;;;24.05;44.33
9525;BME280;15940;48.734;9.112;2022-10-17T11:50:04;97360.16;;;24.11;46.71
9525;BME280;15940;48.734;9.112;2022-10-17T11:52:40;97363.84;;;24.13;46.52
9525;BME280;15940;48.734;9.112;2022-10-17T11:55:15;97358.28;;;24.21;45.74
9525;BME280;15940;48.734;9.112;2022-10-17T11:58:00;97363.66;;;24.19;44.82
9525;BME280;15940;48.734;9.112;2022-10-17T12:00:48;97357.22;;;24.09;46.18
9525;BME280;15940;48.734;9.112;2022-10-17T12:03:28;97371.41;;;24.20;45.83
9525;BME280;15940;48.734;9.112;2022-10-17T12:06:07;97366.00;;;24.38;45.61
9525;BME280;15940;48.734;9.112;2022-10-17T12:08:43;97374.59;;;24.57;46.84
9525;BME280;15940;48.734;9.112;2022-10-17T12:11:25;97365.91;;;24.53;45.88
9525;BME280;15940;48.734;9.112;2022-10-17T12:13:54;97355.22;;;24.49;45.46
9525;BME280;15940;48.734;9.112;2022-10-17T12:16:42;97357.69;;;24.38;45.04
9525;BME280;15940;48.734;9.112;2022-10-17T12:19:25;97349.69;;;24.49;44.07
9525;BME280;15940;48.734;9.112;2022-10-17T12:22:17;97355.41;;;24.52;43.92
9525;BME280;15940;48.734;9.112;2022-10-17T12:24:55;97350.69;;;24.69;45.09
9525;BME280;15940;48.734;9.112;2022-10-17T12:27:47;97352.34;;;24.97;44.16
9525;BME280;15940;48.734;9.112;2022-10-17T12:30:21;97354.59;;;24.91;44.10
9525;BME280;15940;48.734;9.112;2022-10-17T12:33:02;97347.94;;;24.94;44.95
9525;BME280;15940;48.734;9.112;2022-10-17T12:35:32;97349.31;;;25.11;44.60
9525;BME280;15940;48.734;9.112;2022-10-17T12:38:20;97348.88;;;24.89;44.44
9525;BME280;15940;48.734;9.112;2022-10-17T12:41:08;97357.97;;;24.82;45.84
9525;BME280;15940;48.734;9.112;2022-10-17T12:43:50;97352.56;;;24.67;44.79
9525;BME280;15940;48.734;9.112;2022-10-17T12:46:46;97354.16;;;24.77;45.50
9525;BME280;15940;48.734;9.112;2022-10-17T12:49:44;97358.44;;;25.03;43.57
9525;BME280;15940;48.734;9.112;2022-10-17T12:52:24;97352.66;;;25.01;44.13
9525;BME280;15940;48.734;9.112;2022-10-17T12:55:06;97353.78;;;25.06;43.27
9525;BME280;15940;48.734;9.112;2022-10-17T12:57:41;97351.59;;;25.04;41.54
9525;BME280;15940;48.734;9.112;2022-10-17T13:00:19;97353.38;;;24.85;43.95
9525;BME280;15940;48.734;9.112;2022-10-17T13:02:47;97356.97;;;24.95;44.08
9525;BME280;15940;48.734;9.112;2022-10-17T13:05:22;97361.06;;;25.19;43.03
9525;BME280;15940;48.734;9.112;2022-10-17T13:07:52;97349.41;;;25.20;41.41
9525;BME280;15940;48.734;9.112;2022-10-17T13:10:24;97354.16;;;25.27;42.19
9525;BME280;15940;48.734;9.112;2022-10-17T13:12:59;97356.56;;;25.06;42.28
9525;BME280;15940;48.734;9.112;2022-10-17T13:15:28;97363.34;;;25.13;44.56
9525;BME280;15940;48.734;9.112;2022-10-17T13:17:57;97363.47;;;25.22;42.52
9525;BME280;15940;48.734;9.112;2022-10-17T13:20:26;97369.50;;;25.28;42.80
9525;BME280;15940;48.734;9.112;2022-10-17T13:22:54;97373.00;;;25.29;42.53
9525;BME280;15940;48.734;9.112;2022-10-17T13:25:25;97373.03;;;25.46;42.75
9525;BME280;15940;48.734;9.112;2022-10-17T13:28:06;97369.88;;;25.50;42.97
9525;BME280;15940;48.734;9.112;2022-10-17T13:30:35;97367.84;;;25.50;40.60
9525;BME280;15940;48.734;9.112;2022-10-17T13:33:03;97373.69;;;25.37;41.16
9525;BME280;15940;48.734;9.112;2022-10-17T13:35:46;97375.88;;;25.39;42.69
9525;BME280;15940;48.734;9.112;2022-10-17T13:38:14;97391.41;;;25.17;49.05